EDMO

Oberpfaffenhofen Airport

Germany
TAF EDMO 181700Z 1818/1903 08005KT CAVOK TEMPO 1818/1824 1200 BCFG TEMPO 1900/1903 0700 FZFG VV001
Issued Valid From Valid To
Dec-18 @ 17:00 UTC
(6 hours ago)
Dec-18 @ 18:00 UTC
(5 hours ago)
Dec-19 @ 03:00 UTC
(in 4 hours)
Dec-18 @ 18:00 to Dec-19 @ 03:00
TAF EDMO 181700Z 1818/1903 08005KT CAVOK
Wind Visibility Clouds Conditions
80° at 5 knots 10,000+ meters
  • No significant clouds
Temporary Dec-18 @ 18:00 to Dec-19 @ 00:00
TEMPO 1818/1824 1200 BCFG
Visibility Conditions
1,207 meters
  • Patches of
  • Fog
Temporary Dec-19 @ 00:00 to Dec-19 @ 03:00
TEMPO 1900/1903 0700 FZFG VV001
Visibility Clouds Conditions
692 meters
  • Vertical visibility at 100' AGL
  • Freezing
  • Fog
TAF EDMO 181700Z 1818/1903 08005KT CAVOK TEMPO 1818/1824 1200 BCFG TEMPO 1900/1903 0700 FZFG VV001
Issued Dec-18 @ 17:00 UTC
(6 hours ago)
Valid From Dec-18 @ 18:00 UTC
(5 hours ago)
Valid To Dec-19 @ 03:00 UTC
(in 4 hours)
Dec-18 @ 18:00 - Dec-19 @ 03:00
Wind Visibility
80° at 5 knots 10,000+ meters
Clouds
  • No significant clouds
Conditions
Temporary Dec-18 @ 18:00 - Dec-19 @ 00:00
Conditions
  • Patches of
  • Fog
Temporary Dec-19 @ 00:00 - Dec-19 @ 03:00
Clouds
  • Vertical visibility at 100' AGL
Conditions
  • Freezing
  • Fog